sensor_id;sensor_type;location;lat;lon;timestamp;pressure;altitude;pressure_sealevel;temperature;humidity
10940;BME280;5522;42.696;23.494;2022-12-07T00:00:46;53932.22;;;-139.68;100.00
10940;BME280;5522;42.696;23.494;2022-12-07T00:03:13;53892.00;;;-139.68;100.00
10940;BME280;5522;42.696;23.494;2022-12-07T00:05:39;53912.13;;;-139.68;100.00
10940;BME280;5522;42.696;23.494;2022-12-07T00:08:08;53908.09;;;-139.68;100.00
10940;BME280;5522;42.696;23.494;2022-12-07T00:10:35;53912.13;;;-139.68;100.00
10940;BME280;5522;42.696;23.494;2022-12-07T00:13:01;53881.97;;;-139.68;100.00
10940;BME280;5522;42.696;23.494;2022-12-07T00:15:28;53912.13;;;-139.68;100.00
10940;BME280;5522;42.696;23.494;2022-12-07T00:17:55;53908.09;;;-139.68;100.00
10940;BME280;5522;42.696;23.494;2022-12-07T00:20:22;53926.19;;;-139.68;100.00
10940;BME280;5522;42.696;23.494;2022-12-07T00:22:49;53898.03;;;-139.68;100.00
10940;BME280;5522;42.696;23.494;2022-12-07T00:25:17;53881.97;;;-139.68;100.00
10940;BME280;5522;42.696;23.494;2022-12-07T00:27:44;53908.09;;;-139.68;100.00
10940;BME280;5522;42.696;23.494;2022-12-07T00:30:11;53902.06;;;-139.68;100.00
10940;BME280;5522;42.696;23.494;2022-12-07T00:32:38;53892.00;;;-139.68;100.00
10940;BME280;5522;42.696;23.494;2022-12-07T00:35:05;53912.13;;;-139.68;100.00
10940;BME280;5522;42.696;23.494;2022-12-07T00:37:32;53930.22;;;-139.68;100.00
10940;BME280;5522;42.696;23.494;2022-12-07T00:39:59;53875.94;;;-139.68;100.00
10940;BME280;5522;42.696;23.494;2022-12-07T00:42:27;53863.88;;;-139.68;100.00
10940;BME280;5522;42.696;23.494;2022-12-07T00:44:54;53883.97;;;-139.68;100.00
10940;BME280;5522;42.696;23.494;2022-12-07T00:47:21;53902.06;;;-139.68;100.00
10940;BME280;5522;42.696;23.494;2022-12-07T00:49:48;53908.09;;;-139.68;100.00
10940;BME280;5522;42.696;23.494;2022-12-07T00:52:15;53940.25;;;-139.68;100.00
10940;BME280;5522;42.696;23.494;2022-12-07T00:54:41;53932.22;;;-139.68;100.00
10940;BME280;5522;42.696;23.494;2022-12-07T00:57:08;53924.16;;;-139.68;100.00
10940;BME280;5522;42.696;23.494;2022-12-07T00:59:36;53904.06;;;-139.68;100.00
10940;BME280;5522;42.696;23.494;2022-12-07T01:07:32;53942.25;;;-139.68;100.00
10940;BME280;5522;42.696;23.494;2022-12-07T01:09:59;53879.94;;;-139.68;100.00
10940;BME280;5522;42.696;23.494;2022-12-07T01:12:26;53920.16;;;-139.68;100.00
10940;BME280;5522;42.696;23.494;2022-12-07T01:14:54;53883.97;;;-139.68;100.00
10940;BME280;5522;42.696;23.494;2022-12-07T01:17:21;53936.22;;;-139.68;100.00
10940;BME280;5522;42.696;23.494;2022-12-07T01:19:48;53916.13;;;-139.68;100.00
10940;BME280;5522;42.696;23.494;2022-12-07T01:22:15;53922.16;;;-139.68;100.00
10940;BME280;5522;42.696;23.494;2022-12-07T01:24:41;53916.13;;;-139.68;100.00
10940;BME280;5522;42.696;23.494;2022-12-07T01:27:08;53908.09;;;-139.68;100.00
10940;BME280;5522;42.696;23.494;2022-12-07T01:29:35;53916.13;;;-139.68;100.00
10940;BME280;5522;42.696;23.494;2022-12-07T01:32:03;53902.06;;;-139.68;100.00
10940;BME280;5522;42.696;23.494;2022-12-07T01:34:30;53932.22;;;-139.68;100.00
10940;BME280;5522;42.696;23.494;2022-12-07T01:36:57;53928.19;;;-139.68;100.00
10940;BME280;5522;42.696;23.494;2022-12-07T01:39:24;53904.06;;;-139.68;100.00
10940;BME280;5522;42.696;23.494;2022-12-07T01:41:52;53930.22;;;-139.68;100.00
10940;BME280;5522;42.696;23.494;2022-12-07T01:44:21;53920.16;;;-139.68;100.00
10940;BME280;5522;42.696;23.494;2022-12-07T01:46:49;53932.22;;;-139.68;100.00
10940;BME280;5522;42.696;23.494;2022-12-07T01:49:23;53892.00;;;-139.68;100.00
10940;BME280;5522;42.696;23.494;2022-12-07T01:51:53;53954.31;;;-139.68;100.00
10940;BME280;5522;42.696;23.494;2022-12-07T01:54:22;53920.16;;;-139.68;100.00
10940;BME280;5522;42.696;23.494;2022-12-07T01:56:51;53912.13;;;-139.68;100.00
10940;BME280;5522;42.696;23.494;2022-12-07T01:59:22;53936.22;;;-139.68;100.00
10940;BME280;5522;42.696;23.494;2022-12-07T02:01:51;53898.03;;;-139.68;100.00
10940;BME280;5522;42.696;23.494;2022-12-07T02:04:21;53912.13;;;-139.68;100.00
10940;BME280;5522;42.696;23.494;2022-12-07T02:06:48;53912.13;;;-139.68;100.00
10940;BME280;5522;42.696;23.494;2022-12-07T02:09:15;53888.00;;;-139.68;100.00
10940;BME280;5522;42.696;23.494;2022-12-07T02:11:42;53888.00;;;-139.68;100.00
10940;BME280;5522;42.696;23.494;2022-12-07T02:14:09;53900.06;;;-139.68;100.00
10940;BME280;5522;42.696;23.494;2022-12-07T02:16:46;53912.13;;;-139.68;100.00
10940;BME280;5522;42.696;23.494;2022-12-07T02:19:38;53900.06;;;-139.68;100.00
10940;BME280;5522;42.696;23.494;2022-12-07T02:22:22;53902.06;;;-139.68;100.00
10940;BME280;5522;42.696;23.494;2022-12-07T02:24:58;53930.22;;;-139.68;100.00
10940;BME280;5522;42.696;23.494;2022-12-07T02:27:44;53924.16;;;-139.68;100.00
10940;BME280;5522;42.696;23.494;2022-12-07T02:30:14;53881.97;;;-139.68;100.00
10940;BME280;5522;42.696;23.494;2022-12-07T02:32:53;53930.22;;;-139.68;100.00
10940;BME280;5522;42.696;23.494;2022-12-07T02:35:26;53861.84;;;-139.68;100.00
10940;BME280;5522;42.696;23.494;2022-12-07T02:38:02;53974.44;;;-139.68;100.00
10940;BME280;5522;42.696;23.494;2022-12-07T02:40:33;53918.16;;;-139.68;100.00
10940;BME280;5522;42.696;23.494;2022-12-07T02:43:10;53859.84;;;-139.68;100.00
10940;BME280;5522;42.696;23.494;2022-12-07T02:45:41;53888.00;;;-139.68;100.00
10940;BME280;5522;42.696;23.494;2022-12-07T02:48:10;53908.09;;;-139.68;100.00
10940;BME280;5522;42.696;23.494;2022-12-07T02:50:38;53946.28;;;-139.68;100.00
10940;BME280;5522;42.696;23.494;2022-12-07T02:53:05;53944.28;;;-139.68;100.00
10940;BME280;5522;42.696;23.494;2022-12-07T02:55:36;53883.97;;;-139.68;100.00
10940;BME280;5522;42.696;23.494;2022-12-07T02:58:22;53916.13;;;-139.68;100.00
10940;BME280;5522;42.696;23.494;2022-12-07T03:01:03;53908.09;;;-139.68;100.00
10940;BME280;5522;42.696;23.494;2022-12-07T03:03:31;53912.13;;;-139.68;100.00
10940;BME280;5522;42.696;23.494;2022-12-07T03:06:08;53920.16;;;-139.68;100.00
10940;BME280;5522;42.696;23.494;2022-12-07T03:08:47;53888.00;;;-139.68;100.00
10940;BME280;5522;42.696;23.494;2022-12-07T03:11:18;53938.25;;;-139.68;100.00
10940;BME280;5522;42.696;23.494;2022-12-07T03:13:50;53908.09;;;-139.68;100.00
10940;BME280;5522;42.696;23.494;2022-12-07T03:16:24;53904.06;;;-139.68;100.00
10940;BME280;5522;42.696;23.494;2022-12-07T03:18:55;53900.06;;;-139.68;100.00
10940;BME280;5522;42.696;23.494;2022-12-07T03:21:26;53892.00;;;-139.68;100.00
10940;BME280;5522;42.696;23.494;2022-12-07T03:23:56;53910.09;;;-139.68;100.00
10940;BME280;5522;42.696;23.494;2022-12-07T03:26:28;53914.13;;;-139.68;100.00
10940;BME280;5522;42.696;23.494;2022-12-07T03:29:01;53920.16;;;-139.68;100.00
10940;BME280;5522;42.696;23.494;2022-12-07T03:31:34;53912.13;;;-139.68;100.00
10940;BME280;5522;42.696;23.494;2022-12-07T03:34:07;53936.22;;;-139.68;100.00
10940;BME280;5522;42.696;23.494;2022-12-07T03:36:39;53922.16;;;-139.68;100.00
10940;BME280;5522;42.696;23.494;2022-12-07T03:39:17;53883.97;;;-139.68;100.00
10940;BME280;5522;42.696;23.494;2022-12-07T03:41:46;53922.16;;;-139.68;100.00
10940;BME280;5522;42.696;23.494;2022-12-07T03:44:14;53918.16;;;-139.68;100.00
10940;BME280;5522;42.696;23.494;2022-12-07T03:46:44;53896.03;;;-139.68;100.00
10940;BME280;5522;42.696;23.494;2022-12-07T03:49:18;53930.22;;;-139.68;100.00
10940;BME280;5522;42.696;23.494;2022-12-07T03:51:53;53894.03;;;-139.68;100.00
10940;BME280;5522;42.696;23.494;2022-12-07T03:54:24;53920.16;;;-139.68;100.00
10940;BME280;5522;42.696;23.494;2022-12-07T03:56:54;53908.09;;;-139.68;100.00
10940;BME280;5522;42.696;23.494;2022-12-07T03:59:22;53888.00;;;-139.68;100.00
10940;BME280;5522;42.696;23.494;2022-12-07T04:01:54;53883.97;;;-139.68;100.00
10940;BME280;5522;42.696;23.494;2022-12-07T04:04:21;53896.03;;;-139.68;100.00
10940;BME280;5522;42.696;23.494;2022-12-07T04:06:48;53904.06;;;-139.68;100.00
10940;BME280;5522;42.696;23.494;2022-12-07T04:09:16;53873.91;;;-139.68;100.00
10940;BME280;5522;42.696;23.494;2022-12-07T04:11:43;53875.94;;;-139.68;100.00
10940;BME280;5522;42.696;23.494;2022-12-07T04:14:10;53958.34;;;-139.68;100.00
10940;BME280;5522;42.696;23.494;2022-12-07T04:16:46;53906.06;;;-139.68;100.00
10940;BME280;5522;42.696;23.494;2022-12-07T04:19:15;53896.03;;;-139.68;100.00
10940;BME280;5522;42.696;23.494;2022-12-07T04:21:42;53892.00;;;-139.68;100.00
10940;BME280;5522;42.696;23.494;2022-12-07T04:24:11;53930.22;;;-139.68;100.00
10940;BME280;5522;42.696;23.494;2022-12-07T04:26:38;53926.19;;;-139.68;100.00
10940;BME280;5522;42.696;23.494;2022-12-07T04:29:05;53928.19;;;-139.68;100.00
10940;BME280;5522;42.696;23.494;2022-12-07T04:31:31;53881.97;;;-139.68;100.00
10940;BME280;5522;42.696;23.494;2022-12-07T04:33:58;53896.03;;;-139.68;100.00
10940;BME280;5522;42.696;23.494;2022-12-07T04:36:27;53900.06;;;-139.68;100.00
10940;BME280;5522;42.696;23.494;2022-12-07T04:38:54;53936.22;;;-139.68;100.00
10940;BME280;5522;42.696;23.494;2022-12-07T04:41:22;53879.94;;;-139.68;100.00
10940;BME280;5522;42.696;23.494;2022-12-07T04:43:53;53851.81;;;-139.68;100.00
10940;BME280;5522;42.696;23.494;2022-12-07T04:46:20;53920.16;;;-139.68;100.00
10940;BME280;5522;42.696;23.494;2022-12-07T04:48:47;53916.13;;;-139.68;100.00
10940;BME280;5522;42.696;23.494;2022-12-07T04:51:15;53944.28;;;-139.68;100.00
10940;BME280;5522;42.696;23.494;2022-12-07T04:53:46;53875.94;;;-139.68;100.00
10940;BME280;5522;42.696;23.494;2022-12-07T04:56:13;53916.13;;;-139.68;100.00
10940;BME280;5522;42.696;23.494;2022-12-07T04:58:41;53912.13;;;-139.68;100.00
10940;BME280;5522;42.696;23.494;2022-12-07T05:01:08;53910.09;;;-139.68;100.00
10940;BME280;5522;42.696;23.494;2022-12-07T05:03:35;53916.13;;;-139.68;100.00
10940;BME280;5522;42.696;23.494;2022-12-07T05:06:03;53875.94;;;-139.68;100.00
10940;BME280;5522;42.696;23.494;2022-12-07T05:08:30;53908.09;;;-139.68;100.00
10940;BME280;5522;42.696;23.494;2022-12-07T05:10:58;53916.13;;;-139.68;100.00
10940;BME280;5522;42.696;23.494;2022-12-07T05:13:25;53914.13;;;-139.68;100.00
10940;BME280;5522;42.696;23.494;2022-12-07T05:15:52;53936.22;;;-139.68;100.00
10940;BME280;5522;42.696;23.494;2022-12-07T05:18:19;53875.94;;;-139.68;100.00
10940;BME280;5522;42.696;23.494;2022-12-07T05:20:46;53890.00;;;-139.68;100.00
10940;BME280;5522;42.696;23.494;2022-12-07T05:23:13;53871.91;;;-139.68;100.00
10940;BME280;5522;42.696;23.494;2022-12-07T05:25:39;53904.06;;;-139.68;100.00
10940;BME280;5522;42.696;23.494;2022-12-07T05:28:08;53918.16;;;-139.68;100.00
10940;BME280;5522;42.696;23.494;2022-12-07T05:30:35;53906.06;;;-139.68;100.00
10940;BME280;5522;42.696;23.494;2022-12-07T05:33:02;53863.88;;;-139.68;100.00
10940;BME280;5522;42.696;23.494;2022-12-07T05:35:29;53916.13;;;-139.68;100.00
10940;BME280;5522;42.696;23.494;2022-12-07T05:37:56;53920.16;;;-139.68;100.00
10940;BME280;5522;42.696;23.494;2022-12-07T05:40:23;53912.13;;;-139.68;100.00
10940;BME280;5522;42.696;23.494;2022-12-07T05:42:50;53875.94;;;-139.68;100.00
10940;BME280;5522;42.696;23.494;2022-12-07T05:45:18;53881.97;;;-139.68;100.00
10940;BME280;5522;42.696;23.494;2022-12-07T05:47:45;53924.16;;;-139.68;100.00
10940;BME280;5522;42.696;23.494;2022-12-07T05:50:12;53920.16;;;-139.68;100.00
10940;BME280;5522;42.696;23.494;2022-12-07T05:52:39;53912.13;;;-139.68;100.00
10940;BME280;5522;42.696;23.494;2022-12-07T05:55:06;53908.09;;;-139.68;100.00
10940;BME280;5522;42.696;23.494;2022-12-07T05:57:33;53912.13;;;-139.68;100.00
10940;BME280;5522;42.696;23.494;2022-12-07T06:00:00;53932.22;;;-139.68;100.00
10940;BME280;5522;42.696;23.494;2022-12-07T06:02:27;53932.22;;;-139.68;100.00
10940;BME280;5522;42.696;23.494;2022-12-07T06:04:54;53904.06;;;-139.68;100.00
10940;BME280;5522;42.696;23.494;2022-12-07T06:07:21;53908.09;;;-139.68;100.00
10940;BME280;5522;42.696;23.494;2022-12-07T06:09:48;53890.00;;;-139.68;100.00
10940;BME280;5522;42.696;23.494;2022-12-07T06:12:15;53930.22;;;-139.68;100.00
10940;BME280;5522;42.696;23.494;2022-12-07T06:14:55;53922.16;;;-139.68;100.00
10940;BME280;5522;42.696;23.494;2022-12-07T06:17:22;53892.00;;;-139.68;100.00
10940;BME280;5522;42.696;23.494;2022-12-07T06:19:50;53898.03;;;-139.68;100.00
10940;BME280;5522;42.696;23.494;2022-12-07T06:22:18;53900.06;;;-139.68;100.00
10940;BME280;5522;42.696;23.494;2022-12-07T06:24:45;53879.94;;;-139.68;100.00
10940;BME280;5522;42.696;23.494;2022-12-07T06:27:11;53904.06;;;-139.68;100.00
10940;BME280;5522;42.696;23.494;2022-12-07T06:29:38;53908.09;;;-139.68;100.00
10940;BME280;5522;42.696;23.494;2022-12-07T06:32:05;53916.13;;;-139.68;100.00
10940;BME280;5522;42.696;23.494;2022-12-07T06:34:32;53918.16;;;-139.68;100.00
10940;BME280;5522;42.696;23.494;2022-12-07T06:37:00;53908.09;;;-139.68;100.00
10940;BME280;5522;42.696;23.494;2022-12-07T06:39:28;53920.16;;;-139.68;100.00
10940;BME280;5522;42.696;23.494;2022-12-07T06:41:56;53912.13;;;-139.68;100.00
10940;BME280;5522;42.696;23.494;2022-12-07T06:44:23;53950.31;;;-139.68;100.00
10940;BME280;5522;42.696;23.494;2022-12-07T06:46:51;53888.00;;;-139.68;100.00
10940;BME280;5522;42.696;23.494;2022-12-07T06:49:18;53888.00;;;-139.68;100.00
10940;BME280;5522;42.696;23.494;2022-12-07T06:51:45;53881.97;;;-139.68;100.00
10940;BME280;5522;42.696;23.494;2022-12-07T06:54:14;53898.03;;;-139.68;100.00
10940;BME280;5522;42.696;23.494;2022-12-07T06:56:41;53910.09;;;-139.68;100.00
10940;BME280;5522;42.696;23.494;2022-12-07T06:59:08;53918.16;;;-139.68;100.00
10940;BME280;5522;42.696;23.494;2022-12-07T07:01:35;53916.13;;;-139.68;100.00
10940;BME280;5522;42.696;23.494;2022-12-07T07:04:03;53904.06;;;-139.68;100.00
10940;BME280;5522;42.696;23.494;2022-12-07T07:06:30;53904.06;;;-139.68;100.00
10940;BME280;5522;42.696;23.494;2022-12-07T07:08:56;53908.09;;;-139.68;100.00
10940;BME280;5522;42.696;23.494;2022-12-07T07:11:25;53926.19;;;-139.68;100.00
10940;BME280;5522;42.696;23.494;2022-12-07T07:13:51;53890.00;;;-139.68;100.00
10940;BME280;5522;42.696;23.494;2022-12-07T07:16:19;53928.19;;;-139.68;100.00
10940;BME280;5522;42.696;23.494;2022-12-07T07:18:46;53936.22;;;-139.68;100.00
10940;BME280;5522;42.696;23.494;2022-12-07T07:21:12;53926.19;;;-139.68;100.00
10940;BME280;5522;42.696;23.494;2022-12-07T07:23:39;53938.25;;;-139.68;100.00
10940;BME280;5522;42.696;23.494;2022-12-07T07:26:06;53930.22;;;-139.68;100.00
10940;BME280;5522;42.696;23.494;2022-12-07T07:28:34;53916.13;;;-139.68;100.00
10940;BME280;5522;42.696;23.494;2022-12-07T07:31:02;53902.06;;;-139.68;100.00
10940;BME280;5522;42.696;23.494;2022-12-07T07:33:28;53912.13;;;-139.68;100.00
10940;BME280;5522;42.696;23.494;2022-12-07T07:35:55;53950.31;;;-139.68;100.00
10940;BME280;5522;42.696;23.494;2022-12-07T07:38:22;53902.06;;;-139.68;100.00
10940;BME280;5522;42.696;23.494;2022-12-07T07:40:49;53912.13;;;-139.68;100.00
10940;BME280;5522;42.696;23.494;2022-12-07T07:43:16;53928.19;;;-139.68;100.00
10940;BME280;5522;42.696;23.494;2022-12-07T07:45:44;53928.19;;;-139.68;100.00
10940;BME280;5522;42.696;23.494;2022-12-07T07:48:11;53940.25;;;-139.68;100.00
10940;BME280;5522;42.696;23.494;2022-12-07T07:50:38;53922.16;;;-139.68;100.00
10940;BME280;5522;42.696;23.494;2022-12-07T07:53:05;53914.13;;;-139.68;100.00
10940;BME280;5522;42.696;23.494;2022-12-07T07:55:31;53954.31;;;-139.68;100.00
10940;BME280;5522;42.696;23.494;2022-12-07T07:57:58;53954.31;;;-139.68;100.00
10940;BME280;5522;42.696;23.494;2022-12-07T08:00:25;53932.22;;;-139.68;100.00
10940;BME280;5522;42.696;23.494;2022-12-07T08:02:53;53954.31;;;-139.68;100.00
10940;BME280;5522;42.696;23.494;2022-12-07T08:05:20;53954.31;;;-139.68;98.56
10940;BME280;5522;42.696;23.494;2022-12-07T08:07:47;53930.22;;;-139.68;92.83
10940;BME280;5522;42.696;23.494;2022-12-07T08:10:14;53962.38;;;-139.68;86.75
10940;BME280;5522;42.696;23.494;2022-12-07T08:12:42;54002.56;;;-139.68;79.88
10940;BME280;5522;42.696;23.494;2022-12-07T08:15:24;53996.53;;;-139.68;66.69
10940;BME280;5522;42.696;23.494;2022-12-07T08:17:50;54004.59;;;-139.68;61.71
10940;BME280;5522;42.696;23.494;2022-12-07T08:20:19;54056.84;;;-139.68;59.86
10940;BME280;5522;42.696;23.494;2022-12-07T08:22:46;54012.63;;;-139.68;66.39
10940;BME280;5522;42.696;23.494;2022-12-07T08:25:12;54034.75;;;-139.68;66.98
10940;BME280;5522;42.696;23.494;2022-12-07T08:27:39;53994.53;;;-139.68;76.04
10940;BME280;5522;42.696;23.494;2022-12-07T08:30:07;53994.53;;;-139.68;82.92
10940;BME280;5522;42.696;23.494;2022-12-07T08:32:34;53992.53;;;-139.68;90.43
10940;BME280;5522;42.696;23.494;2022-12-07T08:35:01;54024.69;;;-139.68;95.08
10940;BME280;5522;42.696;23.494;2022-12-07T08:37:29;54052.84;;;-139.68;92.99
10940;BME280;5522;42.696;23.494;2022-12-07T08:39:56;53988.50;;;-139.68;90.08
10940;BME280;5522;42.696;23.494;2022-12-07T08:42:22;54002.56;;;-139.68;88.21
10940;BME280;5522;42.696;23.494;2022-12-07T08:44:52;54038.75;;;-139.68;86.94
10940;BME280;5522;42.696;23.494;2022-12-07T08:47:19;53984.47;;;-139.68;89.40
10940;BME280;5522;42.696;23.494;2022-12-07T08:49:48;53990.50;;;-139.68;89.66
10940;BME280;5522;42.696;23.494;2022-12-07T08:52:17;53960.38;;;-139.68;87.84
10940;BME280;5522;42.696;23.494;2022-12-07T08:54:46;53992.53;;;-139.68;81.65
10940;BME280;5522;42.696;23.494;2022-12-07T08:57:13;54022.69;;;-139.68;67.69
10940;BME280;5522;42.696;23.494;2022-12-07T08:59:40;54020.66;;;-139.68;65.49
10940;BME280;5522;42.696;23.494;2022-12-07T09:02:07;54006.59;;;-139.68;67.93
10940;BME280;5522;42.696;23.494;2022-12-07T09:04:34;53980.47;;;-139.68;74.20
10940;BME280;5522;42.696;23.494;2022-12-07T09:07:00;54016.66;;;-139.68;80.44
10940;BME280;5522;42.696;23.494;2022-12-07T09:09:27;53996.53;;;-139.68;85.54
10940;BME280;5522;42.696;23.494;2022-12-07T09:11:56;53960.38;;;-139.68;90.28
10940;BME280;5522;42.696;23.494;2022-12-07T09:14:23;53972.41;;;-139.68;90.71
10940;BME280;5522;42.696;23.494;2022-12-07T09:16:50;53998.56;;;-139.68;95.06
10940;BME280;5522;42.696;23.494;2022-12-07T09:19:17;54000.56;;;-139.68;99.95
10940;BME280;5522;42.696;23.494;2022-12-07T09:21:44;54000.56;;;-139.68;100.00
10940;BME280;5522;42.696;23.494;2022-12-07T09:24:11;54002.56;;;-139.68;100.00
10940;BME280;5522;42.696;23.494;2022-12-07T09:26:38;53968.41;;;-139.68;100.00
10940;BME280;5522;42.696;23.494;2022-12-07T09:29:07;54008.63;;;-139.68;100.00
10940;BME280;5522;42.696;23.494;2022-12-07T09:31:36;53964.38;;;-139.68;100.00
10940;BME280;5522;42.696;23.494;2022-12-07T09:34:03;53998.56;;;-139.68;100.00
10940;BME280;5522;42.696;23.494;2022-12-07T09:36:31;54038.75;;;-139.68;99.87
10940;BME280;5522;42.696;23.494;2022-12-07T09:38:58;54006.59;;;-139.68;92.29
10940;BME280;5522;42.696;23.494;2022-12-07T09:41:27;53970.41;;;-139.68;90.62
10940;BME280;5522;42.696;23.494;2022-12-07T09:44:00;54026.69;;;-139.68;91.97
10940;BME280;5522;42.696;23.494;2022-12-07T09:46:34;53986.50;;;-139.68;94.21
10940;BME280;5522;42.696;23.494;2022-12-07T09:49:02;54010.63;;;-139.68;94.87
10940;BME280;5522;42.696;23.494;2022-12-07T09:51:29;53972.41;;;-139.68;96.31
10940;BME280;5522;42.696;23.494;2022-12-07T09:53:57;54012.63;;;-139.68;97.28
10940;BME280;5522;42.696;23.494;2022-12-07T09:56:24;54042.78;;;-139.68;96.64
10940;BME280;5522;42.696;23.494;2022-12-07T09:59:00;54002.56;;;-139.68;92.72
10940;BME280;5522;42.696;23.494;2022-12-07T10:01:30;54014.63;;;-139.68;92.20
10940;BME280;5522;42.696;23.494;2022-12-07T10:04:05;54012.63;;;-139.68;93.09
10940;BME280;5522;42.696;23.494;2022-12-07T10:06:33;54048.81;;;-139.68;94.10
10940;BME280;5522;42.696;23.494;2022-12-07T10:09:00;53984.47;;;-139.68;95.92
10940;BME280;5522;42.696;23.494;2022-12-07T10:11:28;53996.53;;;-139.68;97.83
10940;BME280;5522;42.696;23.494;2022-12-07T10:13:54;54030.72;;;-139.68;98.11
10940;BME280;5522;42.696;23.494;2022-12-07T10:16:35;54000.56;;;-139.68;98.19
10940;BME280;5522;42.696;23.494;2022-12-07T10:19:25;53988.50;;;-139.68;96.08
10940;BME280;5522;42.696;23.494;2022-12-07T10:22:10;54014.63;;;-139.68;97.63
10940;BME280;5522;42.696;23.494;2022-12-07T10:24:37;54000.56;;;-139.68;97.27
10940;BME280;5522;42.696;23.494;2022-12-07T10:27:18;54000.56;;;-139.68;97.55
10940;BME280;5522;42.696;23.494;2022-12-07T10:29:50;53980.47;;;-139.68;95.19
10940;BME280;5522;42.696;23.494;2022-12-07T10:32:33;53976.44;;;-139.68;92.35
10940;BME280;5522;42.696;23.494;2022-12-07T10:35:21;54018.66;;;-139.68;82.79
10940;BME280;5522;42.696;23.494;2022-12-07T10:37:49;53996.53;;;-139.68;73.12
10940;BME280;5522;42.696;23.494;2022-12-07T10:40:29;53992.53;;;-139.68;74.73
10940;BME280;5522;42.696;23.494;2022-12-07T10:43:04;54018.66;;;-139.68;77.06
10940;BME280;5522;42.696;23.494;2022-12-07T10:45:32;53992.53;;;-139.68;82.81
10940;BME280;5522;42.696;23.494;2022-12-07T10:48:05;54008.63;;;-139.68;85.20
10940;BME280;5522;42.696;23.494;2022-12-07T10:50:58;53988.50;;;-139.68;88.20
10940;BME280;5522;42.696;23.494;2022-12-07T10:53:48;53984.47;;;-139.68;89.25
10940;BME280;5522;42.696;23.494;2022-12-07T10:56:32;53996.53;;;-139.68;92.46
10940;BME280;5522;42.696;23.494;2022-12-07T10:59:21;54034.75;;;-139.68;95.90
10940;BME280;5522;42.696;23.494;2022-12-07T11:01:59;54012.63;;;-139.68;98.00
10940;BME280;5522;42.696;23.494;2022-12-07T11:04:43;54004.59;;;-139.68;94.77
10940;BME280;5522;42.696;23.494;2022-12-07T11:07:22;54020.66;;;-139.68;89.45
10940;BME280;5522;42.696;23.494;2022-12-07T11:10:05;54010.63;;;-139.68;83.03
10940;BME280;5522;42.696;23.494;2022-12-07T11:12:47;54010.63;;;-139.68;78.37
10940;BME280;5522;42.696;23.494;2022-12-07T11:15:24;53998.56;;;-139.68;73.85
10940;BME280;5522;42.696;23.494;2022-12-07T11:17:58;54032.72;;;-139.68;75.00
10940;BME280;5522;42.696;23.494;2022-12-07T11:20:36;53952.31;;;-139.68;78.89
10940;BME280;5522;42.696;23.494;2022-12-07T11:23:13;54008.63;;;-139.68;83.62
10940;BME280;5522;42.696;23.494;2022-12-07T11:25:50;53948.31;;;-139.68;85.34
10940;BME280;5522;42.696;23.494;2022-12-07T11:28:28;53992.53;;;-139.68;86.72
10940;BME280;5522;42.696;23.494;2022-12-07T11:31:04;54056.84;;;-139.68;91.97
10940;BME280;5522;42.696;23.494;2022-12-07T11:33:43;53988.50;;;-139.68;95.00
10940;BME280;5522;42.696;23.494;2022-12-07T11:36:30;54004.59;;;-139.68;96.61
10940;BME280;5522;42.696;23.494;2022-12-07T11:39:03;53992.53;;;-139.68;96.53
10940;BME280;5522;42.696;23.494;2022-12-07T11:41:34;54002.56;;;-139.68;95.93
10940;BME280;5522;42.696;23.494;2022-12-07T11:44:06;53986.50;;;-139.68;94.45
10940;BME280;5522;42.696;23.494;2022-12-07T11:46:45;54008.63;;;-139.68;95.04
10940;BME280;5522;42.696;23.494;2022-12-07T11:49:20;54000.56;;;-139.68;95.32
10940;BME280;5522;42.696;23.494;2022-12-07T11:51:54;54006.59;;;-139.68;94.40
10940;BME280;5522;42.696;23.494;2022-12-07T11:54:28;54016.66;;;-139.68;93.67
10940;BME280;5522;42.696;23.494;2022-12-07T11:57:02;53996.53;;;-139.68;92.64
10940;BME280;5522;42.696;23.494;2022-12-07T11:59:36;54034.75;;;-139.68;95.24
10940;BME280;5522;42.696;23.494;2022-12-07T12:02:12;53994.53;;;-139.68;95.65
10940;BME280;5522;42.696;23.494;2022-12-07T12:04:49;53954.31;;;-139.68;95.92
10940;BME280;5522;42.696;23.494;2022-12-07T12:07:21;53996.53;;;-139.68;97.11
10940;BME280;5522;42.696;23.494;2022-12-07T12:09:52;53988.50;;;-139.68;96.65
10940;BME280;5522;42.696;23.494;2022-12-07T12:12:40;54008.63;;;-139.68;95.55
10940;BME280;5522;42.696;23.494;2022-12-07T12:15:21;53952.31;;;-139.68;95.78
10940;BME280;5522;42.696;23.494;2022-12-07T12:18:06;54024.69;;;-139.68;94.41
10940;BME280;5522;42.696;23.494;2022-12-07T12:20:40;53976.44;;;-139.68;93.29
10940;BME280;5522;42.696;23.494;2022-12-07T12:23:13;54028.72;;;-139.68;95.29
10940;BME280;5522;42.696;23.494;2022-12-07T12:25:44;53964.38;;;-139.68;95.33
10940;BME280;5522;42.696;23.494;2022-12-07T12:28:28;53982.47;;;-139.68;95.87
10940;BME280;5522;42.696;23.494;2022-12-07T12:31:09;53990.50;;;-139.68;99.37
10940;BME280;5522;42.696;23.494;2022-12-07T12:33:43;53978.47;;;-139.68;100.00
10940;BME280;5522;42.696;23.494;2022-12-07T12:36:21;54016.66;;;-139.68;100.00
10940;BME280;5522;42.696;23.494;2022-12-07T12:39:07;54004.59;;;-139.68;100.00
10940;BME280;5522;42.696;23.494;2022-12-07T12:41:54;54000.56;;;-139.68;100.00
10940;BME280;5522;42.696;23.494;2022-12-07T12:47:56;54008.63;;;-139.68;100.00
10940;BME280;5522;42.696;23.494;2022-12-07T12:50:27;53978.47;;;-139.68;100.00
10940;BME280;5522;42.696;23.494;2022-12-07T12:58:36;53998.56;;;-139.68;100.00
10940;BME280;5522;42.696;23.494;2022-12-07T13:01:33;53970.41;;;-139.68;100.00
10940;BME280;5522;42.696;23.494;2022-12-07T13:04:16;53972.41;;;-139.68;100.00